createdAt,value
2023-03-23T15:58:43.111Z,100605.22
2023-03-23T16:01:39.307Z,100606.88
2023-03-23T16:04:09.802Z,100612.06
2023-03-23T16:06:37.598Z,100611.41
2023-03-23T16:09:06.814Z,100620.47
2023-03-23T16:11:34.504Z,100610.91
2023-03-23T16:14:02.640Z,100601.13
2023-03-23T16:16:36.961Z,100611.28
2023-03-23T16:19:05.465Z,100608.09
2023-03-23T16:21:32.995Z,100603.84
2023-03-23T16:24:00.609Z,100599.66
2023-03-23T16:26:28.371Z,100604.34
2023-03-23T16:29:06.068Z,100607.56
2023-03-23T16:31:40.404Z,100615.22
2023-03-23T16:34:08.817Z,100608.78
2023-03-23T16:36:36.572Z,100617.66
2023-03-23T16:39:04.447Z,100614.75
2023-03-23T16:41:32.092Z,100616.16
2023-03-23T16:43:59.570Z,100622.63
2023-03-23T16:46:27.051Z,100608.22
2023-03-23T16:48:54.771Z,100622.00
2023-03-23T16:51:22.268Z,100617.72
2023-03-23T16:53:49.814Z,100622.28
2023-03-23T16:56:17.366Z,100619.44
2023-03-23T16:58:44.929Z,100628.84
2023-03-23T17:01:13.631Z,100631.59
2023-03-23T17:03:43.801Z,100632.34
2023-03-23T17:06:11.618Z,100638.69
2023-03-23T17:08:39.080Z,100637.53
2023-03-23T17:11:06.919Z,100647.25
2023-03-23T17:13:34.631Z,100648.03
2023-03-23T17:16:02.064Z,100645.84
2023-03-23T17:18:29.611Z,100636.56
2023-03-23T17:20:57.313Z,100642.72
2023-03-23T17:23:25.016Z,100637.63
2023-03-23T17:25:53.573Z,100639.66
2023-03-23T17:28:21.212Z,100646.34
2023-03-23T17:30:49.056Z,100661.81
2023-03-23T17:33:16.457Z,100659.19
2023-03-23T17:35:46.908Z,100655.13
2023-03-23T17:38:14.723Z,100674.69
2023-03-23T17:40:42.124Z,100661.25
2023-03-23T17:43:09.597Z,100672.69
2023-03-23T17:45:37.606Z,100673.44
2023-03-23T17:48:07.823Z,100679.66
2023-03-23T17:50:36.078Z,100668.53
2023-03-23T17:53:03.825Z,100677.75
2023-03-23T17:55:31.282Z,100672.72
2023-03-23T17:57:58.695Z,100683.44
2023-03-23T18:00:26.342Z,100674.19
2023-03-23T18:02:53.850Z,100681.22
2023-03-23T18:05:21.461Z,100683.28
2023-03-23T18:07:48.971Z,100673.88
2023-03-23T18:10:16.528Z,100677.88
2023-03-23T18:12:48.738Z,100692.28
2023-03-23T18:15:16.394Z,100677.75
2023-03-23T18:17:48.119Z,100686.66
2023-03-23T18:20:16.585Z,100687.91
2023-03-23T18:22:43.977Z,100692.56
2023-03-23T18:25:11.458Z,100689.13
2023-03-23T18:27:39.229Z,100689.50
2023-03-23T18:30:09.234Z,100692.34
2023-03-23T18:32:40.702Z,100701.94
2023-03-23T18:35:10.976Z,100712.53
2023-03-23T18:37:41.629Z,100710.34
2023-03-23T18:40:14.378Z,100723.56
2023-03-23T18:42:42.370Z,100716.72
2023-03-23T18:45:09.895Z,100711.09
2023-03-23T18:47:38.611Z,100712.06
2023-03-23T18:50:10.593Z,100718.28
2023-03-23T18:52:38.294Z,100713.03
2023-03-23T18:55:06.403Z,100730.91
2023-03-23T18:57:34.123Z,100714.09
2023-03-23T19:00:01.595Z,100721.94
2023-03-23T19:02:29.234Z,100718.75
2023-03-23T19:04:57.106Z,100734.16
2023-03-23T19:07:24.626Z,100741.63
2023-03-23T19:09:51.979Z,100739.16
2023-03-23T19:12:19.421Z,100741.84
2023-03-23T19:14:46.723Z,100736.97
2023-03-23T19:17:14.194Z,100737.81
2023-03-23T19:19:43.150Z,100733.94
2023-03-23T19:22:12.442Z,100738.22
2023-03-23T19:24:39.909Z,100747.66
2023-03-23T19:27:08.059Z,100738.94
2023-03-23T19:29:35.866Z,100745.75
2023-03-23T19:32:03.344Z,100746.28
2023-03-23T19:34:31.956Z,100747.38
2023-03-23T19:37:05.404Z,100749.72
2023-03-23T19:39:34.743Z,100742.66
2023-03-23T19:42:04.346Z,100752.59
2023-03-23T19:44:32.928Z,100756.28
2023-03-23T19:47:00.728Z,100757.38
2023-03-23T19:49:28.826Z,100754.81
2023-03-23T19:52:06.455Z,100760.97
2023-03-23T19:54:41.496Z,100753.19
2023-03-23T19:57:30.534Z,100759.34
2023-03-23T20:00:09.036Z,100759.00
2023-03-23T20:02:40.842Z,100759.00
2023-03-23T20:05:09.308Z,100755.31
2023-03-23T20:07:42.794Z,100764.88
2023-03-23T20:10:16.471Z,100769.03
2023-03-23T20:12:54.529Z,100763.75
2023-03-23T20:15:35.637Z,100773.63
2023-03-23T20:18:14.675Z,100764.72
2023-03-23T20:20:52.624Z,100774.41
2023-03-23T20:23:20.604Z,100772.13
2023-03-23T20:25:50.207Z,100782.13
2023-03-23T20:28:18.347Z,100776.22
2023-03-23T20:31:19.754Z,100780.66
2023-03-23T20:33:39.891Z,100783.81
2023-03-23T20:36:11.314Z,100790.47
2023-03-23T20:38:41.860Z,100796.84
2023-03-23T20:41:12.385Z,100781.22
2023-03-23T20:43:43.331Z,100788.00
2023-03-23T20:46:23.576Z,100796.38
2023-03-23T20:51:41.372Z,100790.63
2023-03-23T20:54:10.243Z,100798.75
2023-03-23T20:56:42.491Z,100791.22
2023-03-23T20:59:11.109Z,100788.63
2023-03-23T21:01:53.955Z,100784.81
2023-03-23T21:05:26.949Z,100802.59
2023-03-23T21:16:45.086Z,100813.13
2023-03-23T21:19:49.448Z,100816.00
2023-03-23T21:22:48.963Z,100816.84
2023-03-23T21:26:14.020Z,100819.41
2023-03-23T21:28:42.981Z,100810.97
2023-03-23T21:31:40.228Z,100809.69
2023-03-23T21:34:19.619Z,100818.03
2023-03-23T21:37:26.832Z,100806.81
2023-03-23T21:40:32.816Z,100808.75
2023-03-23T21:43:27.639Z,100803.84
2023-03-23T21:46:22.562Z,100793.31
2023-03-23T21:49:22.917Z,100788.34
2023-03-23T21:52:18.589Z,100790.47
2023-03-23T21:54:51.915Z,100781.66
2023-03-23T21:58:09.826Z,100792.94
2023-03-23T22:01:25.733Z,100780.19
2023-03-23T22:04:14.159Z,100790.53
2023-03-23T22:07:55.668Z,100782.66
2023-03-23T22:11:03.905Z,100770.34
2023-03-23T22:13:36.389Z,100791.56
2023-03-23T22:16:10.956Z,100781.47
2023-03-23T22:19:00.010Z,100776.09
2023-03-23T22:21:50.501Z,100775.19
2023-03-23T22:24:21.144Z,100781.19
2023-03-23T22:26:48.741Z,100805.28
2023-03-23T22:29:17.286Z,100796.50
2023-03-23T22:31:45.471Z,100788.63
2023-03-23T22:34:13.500Z,100785.69
2023-03-23T22:36:41.524Z,100789.50
2023-03-23T22:39:12.720Z,100788.97
2023-03-23T22:41:42.007Z,100788.19
2023-03-23T22:44:18.898Z,100779.41
2023-03-23T22:46:51.385Z,100783.94
2023-03-23T22:49:19.477Z,100790.28
2023-03-23T22:51:47.188Z,100790.56
2023-03-23T22:54:14.776Z,100786.91
2023-03-23T22:56:43.123Z,100796.69
2023-03-23T22:59:11.144Z,100787.88
2023-03-23T23:01:38.831Z,100781.22
2023-03-23T23:04:07.221Z,100786.47
2023-03-23T23:06:36.602Z,100791.19
2023-03-23T23:09:04.726Z,100792.53
2023-03-23T23:11:32.601Z,100780.50
2023-03-23T23:14:00.144Z,100780.50
2023-03-23T23:16:27.984Z,100787.06
2023-03-23T23:18:57.636Z,100777.25
2023-03-23T23:21:29.055Z,100776.75
2023-03-23T23:23:57.296Z,100775.63
2023-03-23T23:26:24.845Z,100774.53
2023-03-23T23:28:52.830Z,100776.28
2023-03-23T23:31:26.761Z,100773.03
2023-03-23T23:33:56.336Z,100763.75
2023-03-23T23:36:28.207Z,100763.25
2023-03-23T23:38:57.226Z,100755.63
2023-03-23T23:41:25.064Z,100773.31
2023-03-23T23:43:52.618Z,100767.66
2023-03-23T23:46:20.453Z,100769.00
2023-03-23T23:48:48.192Z,100768.34
2023-03-23T23:51:16.649Z,100779.44
2023-03-23T23:53:46.359Z,100776.84
2023-03-23T23:56:14.534Z,100768.22
2023-03-23T23:58:42.032Z,100767.44
